sensor_id;sensor_type;location;lat;lon;timestamp;temperature;humidity
31979;DHT22;18502;43.574;1.276;2023-03-14T07:01:45;10.00;99.90
31979;DHT22;18502;43.574;1.276;2023-03-14T07:04:10;10.00;99.90
31979;DHT22;18502;43.574;1.276;2023-03-14T07:06:36;9.90;99.90
31979;DHT22;18502;43.574;1.276;2023-03-14T07:09:02;10.00;99.90
31979;DHT22;18502;43.574;1.276;2023-03-14T07:11:28;10.10;99.90
31979;DHT22;18502;43.574;1.276;2023-03-14T07:13:54;10.20;99.90
31979;DHT22;18502;43.574;1.276;2023-03-14T07:16:19;10.30;99.90
31979;DHT22;18502;43.574;1.276;2023-03-14T07:18:45;10.20;99.90
31979;DHT22;18502;43.574;1.276;2023-03-14T07:21:11;10.30;99.90
31979;DHT22;18502;43.574;1.276;2023-03-14T07:23:38;10.30;99.90
31979;DHT22;18502;43.574;1.276;2023-03-14T07:26:04;10.30;99.90
31979;DHT22;18502;43.574;1.276;2023-03-14T07:28:29;10.40;99.90
31979;DHT22;18502;43.574;1.276;2023-03-14T07:30:55;10.40;99.90
31979;DHT22;18502;43.574;1.276;2023-03-14T07:33:21;10.40;99.90
31979;DHT22;18502;43.574;1.276;2023-03-14T07:35:47;10.40;99.90
31979;DHT22;18502;43.574;1.276;2023-03-14T07:38:14;10.50;99.90
31979;DHT22;18502;43.574;1.276;2023-03-14T07:40:40;10.60;99.90
31979;DHT22;18502;43.574;1.276;2023-03-14T07:43:06;10.80;99.90
31979;DHT22;18502;43.574;1.276;2023-03-14T07:45:31;10.80;99.90
31979;DHT22;18502;43.574;1.276;2023-03-14T07:47:57;10.90;99.90
31979;DHT22;18502;43.574;1.276;2023-03-14T07:50:27;10.80;99.90
31979;DHT22;18502;43.574;1.276;2023-03-14T07:52:54;10.70;99.90
31979;DHT22;18502;43.574;1.276;2023-03-14T07:55:20;10.80;99.90
31979;DHT22;18502;43.574;1.276;2023-03-14T07:57:46;10.90;99.90
31979;DHT22;18502;43.574;1.276;2023-03-14T08:00:13;11.10;99.90
31979;DHT22;18502;43.574;1.276;2023-03-14T08:02:40;11.10;99.90
31979;DHT22;18502;43.574;1.276;2023-03-14T08:05:06;11.10;99.90
31979;DHT22;18502;43.574;1.276;2023-03-14T08:07:32;11.10;99.90
31979;DHT22;18502;43.574;1.276;2023-03-14T08:09:57;11.20;99.90
31979;DHT22;18502;43.574;1.276;2023-03-14T08:12:23;11.40;99.90
31979;DHT22;18502;43.574;1.276;2023-03-14T08:14:49;11.40;99.90
31979;DHT22;18502;43.574;1.276;2023-03-14T08:17:14;11.40;99.90
31979;DHT22;18502;43.574;1.276;2023-03-14T08:19:41;11.50;99.90
31979;DHT22;18502;43.574;1.276;2023-03-14T08:22:07;11.50;99.90
31979;DHT22;18502;43.574;1.276;2023-03-14T08:24:33;11.60;99.90
31979;DHT22;18502;43.574;1.276;2023-03-14T08:26:59;11.80;99.90
31979;DHT22;18502;43.574;1.276;2023-03-14T08:29:25;12.00;99.90
31979;DHT22;18502;43.574;1.276;2023-03-14T08:31:50;11.90;99.90
31979;DHT22;18502;43.574;1.276;2023-03-14T08:34:16;12.00;99.90
31979;DHT22;18502;43.574;1.276;2023-03-14T08:36:42;12.40;99.90
31979;DHT22;18502;43.574;1.276;2023-03-14T08:39:08;12.20;99.90
31979;DHT22;18502;43.574;1.276;2023-03-14T08:41:34;12.20;99.90
31979;DHT22;18502;43.574;1.276;2023-03-14T08:44:06;11.90;99.90
31979;DHT22;18502;43.574;1.276;2023-03-14T08:46:32;12.20;99.90
31979;DHT22;18502;43.574;1.276;2023-03-14T08:48:58;12.30;99.90
31979;DHT22;18502;43.574;1.276;2023-03-14T08:51:24;12.80;99.90
31979;DHT22;18502;43.574;1.276;2023-03-14T08:53:50;12.80;99.90
31979;DHT22;18502;43.574;1.276;2023-03-14T08:56:16;12.70;99.90
31979;DHT22;18502;43.574;1.276;2023-03-14T08:58:42;12.30;99.90
31979;DHT22;18502;43.574;1.276;2023-03-14T09:01:09;12.20;99.90
31979;DHT22;18502;43.574;1.276;2023-03-14T09:03:35;12.20;99.90
31979;DHT22;18502;43.574;1.276;2023-03-14T09:06:02;12.40;99.90
31979;DHT22;18502;43.574;1.276;2023-03-14T09:08:29;12.40;99.90
31979;DHT22;18502;43.574;1.276;2023-03-14T09:10:54;12.60;99.90
31979;DHT22;18502;43.574;1.276;2023-03-14T09:13:20;12.60;99.90
31979;DHT22;18502;43.574;1.276;2023-03-14T09:15:52;12.80;99.90
31979;DHT22;18502;43.574;1.276;2023-03-14T09:18:18;12.50;99.90
31979;DHT22;18502;43.574;1.276;2023-03-14T09:20:43;12.30;99.90
31979;DHT22;18502;43.574;1.276;2023-03-14T09:23:09;12.20;99.90
31979;DHT22;18502;43.574;1.276;2023-03-14T09:25:35;12.00;99.90
31979;DHT22;18502;43.574;1.276;2023-03-14T09:28:00;10.60;99.90
31979;DHT22;18502;43.574;1.276;2023-03-14T09:30:26;11.10;99.90
31979;DHT22;18502;43.574;1.276;2023-03-14T09:32:52;10.90;99.90
31979;DHT22;18502;43.574;1.276;2023-03-14T09:35:17;11.10;99.90
31979;DHT22;18502;43.574;1.276;2023-03-14T09:37:43;11.20;99.90
31979;DHT22;18502;43.574;1.276;2023-03-14T09:40:12;11.30;99.90
31979;DHT22;18502;43.574;1.276;2023-03-14T09:42:39;11.40;99.90
31979;DHT22;18502;43.574;1.276;2023-03-14T09:45:11;11.30;99.90
31979;DHT22;18502;43.574;1.276;2023-03-14T09:47:39;11.00;99.90
31979;DHT22;18502;43.574;1.276;2023-03-14T09:50:18;10.50;99.90
31979;DHT22;18502;43.574;1.276;2023-03-14T09:52:50;10.00;99.90
31979;DHT22;18502;43.574;1.276;2023-03-14T09:55:19;9.90;99.90
31979;DHT22;18502;43.574;1.276;2023-03-14T09:57:48;9.50;99.90
31979;DHT22;18502;43.574;1.276;2023-03-14T10:00:20;9.80;99.90
31979;DHT22;18502;43.574;1.276;2023-03-14T10:03:04;9.50;99.90
31979;DHT22;18502;43.574;1.276;2023-03-14T10:05:39;9.80;99.90
31979;DHT22;18502;43.574;1.276;2023-03-14T10:08:05;10.00;99.90
31979;DHT22;18502;43.574;1.276;2023-03-14T10:10:31;11.50;99.90
31979;DHT22;18502;43.574;1.276;2023-03-14T10:12:58;13.20;99.90
31979;DHT22;18502;43.574;1.276;2023-03-14T10:15:32;13.40;99.90
31979;DHT22;18502;43.574;1.276;2023-03-14T10:18:00;13.50;99.90
31979;DHT22;18502;43.574;1.276;2023-03-14T10:20:38;13.40;99.90
31979;DHT22;18502;43.574;1.276;2023-03-14T10:23:06;13.30;99.90
31979;DHT22;18502;43.574;1.276;2023-03-14T10:25:35;13.20;99.90
31979;DHT22;18502;43.574;1.276;2023-03-14T10:28:03;12.90;99.90
31979;DHT22;18502;43.574;1.276;2023-03-14T10:30:45;14.20;99.90
31979;DHT22;18502;43.574;1.276;2023-03-14T10:33:20;13.90;99.90
31979;DHT22;18502;43.574;1.276;2023-03-14T10:35:53;14.20;99.90
31979;DHT22;18502;43.574;1.276;2023-03-14T10:38:23;14.00;99.90
31979;DHT22;18502;43.574;1.276;2023-03-14T10:40:51;15.30;99.90
31979;DHT22;18502;43.574;1.276;2023-03-14T10:43:38;17.10;99.90
31979;DHT22;18502;43.574;1.276;2023-03-14T10:46:18;14.70;99.90
31979;DHT22;18502;43.574;1.276;2023-03-14T10:48:44;15.10;99.90
31979;DHT22;18502;43.574;1.276;2023-03-14T10:53:48;16.40;99.90
31979;DHT22;18502;43.574;1.276;2023-03-14T10:56:20;16.90;99.90
31979;DHT22;18502;43.574;1.276;2023-03-14T10:58:51;18.80;99.90
31979;DHT22;18502;43.574;1.276;2023-03-14T11:01:22;17.10;99.90
31979;DHT22;18502;43.574;1.276;2023-03-14T11:09:29;13.30;99.90
31979;DHT22;18502;43.574;1.276;2023-03-14T11:12:13;13.20;99.90
31979;DHT22;18502;43.574;1.276;2023-03-14T11:14:48;14.50;99.90
31979;DHT22;18502;43.574;1.276;2023-03-14T11:20:36;18.20;99.90
31979;DHT22;18502;43.574;1.276;2023-03-14T11:25:56;15.00;99.90
31979;DHT22;18502;43.574;1.276;2023-03-14T11:36:17;10.30;99.90
31979;DHT22;18502;43.574;1.276;2023-03-14T11:38:50;10.40;99.90
31979;DHT22;18502;43.574;1.276;2023-03-14T11:41:41;10.40;99.90
31979;DHT22;18502;43.574;1.276;2023-03-14T11:51:52;12.50;99.90
31979;DHT22;18502;43.574;1.276;2023-03-14T11:56:52;17.90;99.90
31979;DHT22;18502;43.574;1.276;2023-03-14T12:05:20;18.20;99.90
31979;DHT22;18502;43.574;1.276;2023-03-14T12:13:13;15.00;99.90
31979;DHT22;18502;43.574;1.276;2023-03-14T12:15:46;13.90;99.90
31979;DHT22;18502;43.574;1.276;2023-03-14T12:18:33;12.90;99.90
31979;DHT22;18502;43.574;1.276;2023-03-14T12:21:05;12.90;99.90
31979;DHT22;18502;43.574;1.276;2023-03-14T12:23:52;12.80;99.90
31979;DHT22;18502;43.574;1.276;2023-03-14T12:26:26;13.10;99.90
31979;DHT22;18502;43.574;1.276;2023-03-14T12:31:44;15.90;99.90
31979;DHT22;18502;43.574;1.276;2023-03-14T12:44:45;19.70;99.90
31979;DHT22;18502;43.574;1.276;2023-03-14T12:49:53;25.00;92.30
31979;DHT22;18502;43.574;1.276;2023-03-14T12:52:36;24.10;76.70
31979;DHT22;18502;43.574;1.276;2023-03-14T12:55:15;22.00;73.00
31979;DHT22;18502;43.574;1.276;2023-03-14T13:00:37;20.00;76.80
31979;DHT22;18502;43.574;1.276;2023-03-14T13:03:19;21.60;79.10
31979;DHT22;18502;43.574;1.276;2023-03-14T13:05:59;21.30;75.80
31979;DHT22;18502;43.574;1.276;2023-03-14T13:08:36;21.30;70.90
31979;DHT22;18502;43.574;1.276;2023-03-14T13:11:05;20.70;69.10
31979;DHT22;18502;43.574;1.276;2023-03-14T13:13:34;20.80;69.30
31979;DHT22;18502;43.574;1.276;2023-03-14T13:16:01;18.10;77.20
31979;DHT22;18502;43.574;1.276;2023-03-14T13:18:37;16.20;88.10
31979;DHT22;18502;43.574;1.276;2023-03-14T13:21:16;15.30;99.90
31979;DHT22;18502;43.574;1.276;2023-03-14T13:23:56;12.90;99.90
31979;DHT22;18502;43.574;1.276;2023-03-14T13:26:24;11.80;99.90
31979;DHT22;18502;43.574;1.276;2023-03-14T13:28:51;11.50;99.90
31979;DHT22;18502;43.574;1.276;2023-03-14T13:31:24;12.00;99.90
31979;DHT22;18502;43.574;1.276;2023-03-14T13:34:00;16.20;99.90
31979;DHT22;18502;43.574;1.276;2023-03-14T13:36:27;16.80;99.90
31979;DHT22;18502;43.574;1.276;2023-03-14T13:38:57;14.90;99.90
31979;DHT22;18502;43.574;1.276;2023-03-14T13:41:24;15.00;99.90
31979;DHT22;18502;43.574;1.276;2023-03-14T13:43:50;15.00;99.90
31979;DHT22;18502;43.574;1.276;2023-03-14T13:46:22;16.30;99.90
31979;DHT22;18502;43.574;1.276;2023-03-14T13:48:59;17.20;99.90
31979;DHT22;18502;43.574;1.276;2023-03-14T13:51:26;17.00;99.90
31979;DHT22;18502;43.574;1.276;2023-03-14T13:53:57;17.00;99.90
31979;DHT22;18502;43.574;1.276;2023-03-14T13:56:26;14.70;99.90
31979;DHT22;18502;43.574;1.276;2023-03-14T13:58:52;13.80;99.90
31979;DHT22;18502;43.574;1.276;2023-03-14T14:01:38;13.10;99.90
31979;DHT22;18502;43.574;1.276;2023-03-14T14:04:16;13.80;99.90
31979;DHT22;18502;43.574;1.276;2023-03-14T14:06:49;14.00;99.90
31979;DHT22;18502;43.574;1.276;2023-03-14T14:09:29;14.20;99.90
31979;DHT22;18502;43.574;1.276;2023-03-14T14:14:36;13.50;99.90
31979;DHT22;18502;43.574;1.276;2023-03-14T14:17:06;13.20;99.90
31979;DHT22;18502;43.574;1.276;2023-03-14T14:19:34;13.30;99.90
31979;DHT22;18502;43.574;1.276;2023-03-14T14:22:01;17.90;99.90
31979;DHT22;18502;43.574;1.276;2023-03-14T14:24:30;19.30;99.90
31979;DHT22;18502;43.574;1.276;2023-03-14T14:27:15;17.90;99.90
31979;DHT22;18502;43.574;1.276;2023-03-14T14:29:42;14.60;99.90
31979;DHT22;18502;43.574;1.276;2023-03-14T14:34:56;12.90;99.90
31979;DHT22;18502;43.574;1.276;2023-03-14T14:37:27;13.00;99.90
31979;DHT22;18502;43.574;1.276;2023-03-14T14:40:24;13.90;99.90
31979;DHT22;18502;43.574;1.276;2023-03-14T14:42:50;16.00;99.90
31979;DHT22;18502;43.574;1.276;2023-03-14T14:45:19;13.80;99.90
31979;DHT22;18502;43.574;1.276;2023-03-14T14:53:21;12.40;99.90
31979;DHT22;18502;43.574;1.276;2023-03-14T14:55:54;12.20;99.90
31979;DHT22;18502;43.574;1.276;2023-03-14T15:01:11;11.20;99.90
31979;DHT22;18502;43.574;1.276;2023-03-14T15:03:42;10.40;99.90
31979;DHT22;18502;43.574;1.276;2023-03-14T15:06:12;10.10;99.90
31979;DHT22;18502;43.574;1.276;2023-03-14T15:08:38;10.70;99.90
31979;DHT22;18502;43.574;1.276;2023-03-14T15:11:04;11.20;99.90
31979;DHT22;18502;43.574;1.276;2023-03-14T15:13:30;10.90;99.90
31979;DHT22;18502;43.574;1.276;2023-03-14T15:15:56;11.20;99.90
31979;DHT22;18502;43.574;1.276;2023-03-14T15:18:27;10.80;99.90
31979;DHT22;18502;43.574;1.276;2023-03-14T15:20:53;10.80;99.90
31979;DHT22;18502;43.574;1.276;2023-03-14T15:23:20;10.70;99.90
31979;DHT22;18502;43.574;1.276;2023-03-14T15:25:47;10.90;99.90
31979;DHT22;18502;43.574;1.276;2023-03-14T15:28:22;10.70;99.90
31979;DHT22;18502;43.574;1.276;2023-03-14T15:30:53;10.80;99.90
31979;DHT22;18502;43.574;1.276;2023-03-14T15:33:20;11.10;99.90
31979;DHT22;18502;43.574;1.276;2023-03-14T15:35:47;12.10;99.90
31979;DHT22;18502;43.574;1.276;2023-03-14T15:38:15;12.50;99.90
31979;DHT22;18502;43.574;1.276;2023-03-14T15:40:42;11.70;99.90
31979;DHT22;18502;43.574;1.276;2023-03-14T15:43:07;11.30;99.90
31979;DHT22;18502;43.574;1.276;2023-03-14T15:45:33;11.20;99.90
31979;DHT22;18502;43.574;1.276;2023-03-14T15:47:59;11.30;99.90
31979;DHT22;18502;43.574;1.276;2023-03-14T15:50:25;11.90;99.90
31979;DHT22;18502;43.574;1.276;2023-03-14T15:52:51;11.90;99.90
31979;DHT22;18502;43.574;1.276;2023-03-14T15:55:17;15.20;99.90
31979;DHT22;18502;43.574;1.276;2023-03-14T15:57:44;14.90;99.90
31979;DHT22;18502;43.574;1.276;2023-03-14T16:00:16;19.20;99.90
31979;DHT22;18502;43.574;1.276;2023-03-14T16:02:43;19.00;99.90
31979;DHT22;18502;43.574;1.276;2023-03-14T16:05:11;14.90;99.90
31979;DHT22;18502;43.574;1.276;2023-03-14T16:07:37;13.30;99.90
31979;DHT22;18502;43.574;1.276;2023-03-14T16:10:04;12.50;99.90
31979;DHT22;18502;43.574;1.276;2023-03-14T16:12:31;12.50;99.90
31979;DHT22;18502;43.574;1.276;2023-03-14T16:14:56;12.40;99.90
31979;DHT22;18502;43.574;1.276;2023-03-14T16:17:22;12.10;99.90
31979;DHT22;18502;43.574;1.276;2023-03-14T16:19:47;12.00;99.90
31979;DHT22;18502;43.574;1.276;2023-03-14T16:22:13;11.60;99.90
31979;DHT22;18502;43.574;1.276;2023-03-14T16:24:39;11.00;99.90
31979;DHT22;18502;43.574;1.276;2023-03-14T16:27:05;11.80;99.90
31979;DHT22;18502;43.574;1.276;2023-03-14T16:29:30;14.30;99.90
31979;DHT22;18502;43.574;1.276;2023-03-14T16:31:56;15.20;99.90
31979;DHT22;18502;43.574;1.276;2023-03-14T16:34:22;16.90;99.90
31979;DHT22;18502;43.574;1.276;2023-03-14T16:36:47;17.90;99.90
31979;DHT22;18502;43.574;1.276;2023-03-14T16:39:16;17.30;99.90
31979;DHT22;18502;43.574;1.276;2023-03-14T16:41:42;16.80;99.90
31979;DHT22;18502;43.574;1.276;2023-03-14T16:44:08;16.90;99.90
31979;DHT22;18502;43.574;1.276;2023-03-14T16:46:33;16.30;99.90
31979;DHT22;18502;43.574;1.276;2023-03-14T16:49:01;15.60;99.90
31979;DHT22;18502;43.574;1.276;2023-03-14T16:51:27;13.40;99.90
31979;DHT22;18502;43.574;1.276;2023-03-14T16:53:53;13.50;99.90
31979;DHT22;18502;43.574;1.276;2023-03-14T16:56:19;12.90;99.90
31979;DHT22;18502;43.574;1.276;2023-03-14T16:58:45;12.60;99.90
31979;DHT22;18502;43.574;1.276;2023-03-14T17:01:13;12.40;99.90
31979;DHT22;18502;43.574;1.276;2023-03-14T17:03:49;12.10;99.90
31979;DHT22;18502;43.574;1.276;2023-03-14T17:06:18;12.00;99.90
31979;DHT22;18502;43.574;1.276;2023-03-14T17:08:44;11.80;99.90
31979;DHT22;18502;43.574;1.276;2023-03-14T17:11:10;11.70;99.90
31979;DHT22;18502;43.574;1.276;2023-03-14T17:13:37;11.70;99.90
31979;DHT22;18502;43.574;1.276;2023-03-14T17:16:03;11.60;99.90
31979;DHT22;18502;43.574;1.276;2023-03-14T17:18:30;11.40;99.90
31979;DHT22;18502;43.574;1.276;2023-03-14T17:20:57;11.40;99.90
31979;DHT22;18502;43.574;1.276;2023-03-14T17:23:24;11.40;99.90
31979;DHT22;18502;43.574;1.276;2023-03-14T17:25:50;11.40;99.90
31979;DHT22;18502;43.574;1.276;2023-03-14T17:28:18;11.30;99.90
31979;DHT22;18502;43.574;1.276;2023-03-14T17:30:44;11.20;99.90
31979;DHT22;18502;43.574;1.276;2023-03-14T17:33:10;11.20;99.90
31979;DHT22;18502;43.574;1.276;2023-03-14T17:35:35;11.20;99.90
31979;DHT22;18502;43.574;1.276;2023-03-14T17:38:01;11.10;99.90
31979;DHT22;18502;43.574;1.276;2023-03-14T17:40:27;11.10;99.90
31979;DHT22;18502;43.574;1.276;2023-03-14T17:42:53;11.10;99.90
31979;DHT22;18502;43.574;1.276;2023-03-14T17:45:18;11.10;99.90
31979;DHT22;18502;43.574;1.276;2023-03-14T17:47:44;11.00;99.90
31979;DHT22;18502;43.574;1.276;2023-03-14T17:50:10;11.10;99.90
31979;DHT22;18502;43.574;1.276;2023-03-14T17:52:36;11.10;99.90
31979;DHT22;18502;43.574;1.276;2023-03-14T17:55:03;11.00;99.90
31979;DHT22;18502;43.574;1.276;2023-03-14T17:57:29;11.00;99.90
31979;DHT22;18502;43.574;1.276;2023-03-14T17:59:55;10.90;99.90
31979;DHT22;18502;43.574;1.276;2023-03-14T18:02:22;10.80;99.90
31979;DHT22;18502;43.574;1.276;2023-03-14T18:04:48;10.70;99.90
31979;DHT22;18502;43.574;1.276;2023-03-14T18:07:14;10.60;99.90
31979;DHT22;18502;43.574;1.276;2023-03-14T18:09:40;10.60;99.90
31979;DHT22;18502;43.574;1.276;2023-03-14T18:12:07;10.40;99.90
31979;DHT22;18502;43.574;1.276;2023-03-14T18:14:33;10.40;99.90
31979;DHT22;18502;43.574;1.276;2023-03-14T18:16:59;10.40;99.90
31979;DHT22;18502;43.574;1.276;2023-03-14T18:19:25;10.30;99.90
31979;DHT22;18502;43.574;1.276;2023-03-14T18:21:51;10.30;99.90
31979;DHT22;18502;43.574;1.276;2023-03-14T18:24:18;10.20;99.90
31979;DHT22;18502;43.574;1.276;2023-03-14T18:26:43;10.20;99.90
31979;DHT22;18502;43.574;1.276;2023-03-14T18:29:09;10.20;99.90
31979;DHT22;18502;43.574;1.276;2023-03-14T18:31:40;10.20;99.90
31979;DHT22;18502;43.574;1.276;2023-03-14T18:34:05;10.10;99.90
31979;DHT22;18502;43.574;1.276;2023-03-14T18:36:31;10.10;99.90
31979;DHT22;18502;43.574;1.276;2023-03-14T18:38:57;10.00;99.90
31979;DHT22;18502;43.574;1.276;2023-03-14T18:41:24;10.00;99.90
31979;DHT22;18502;43.574;1.276;2023-03-14T18:43:51;10.00;99.90
31979;DHT22;18502;43.574;1.276;2023-03-14T18:46:19;10.10;99.90
31979;DHT22;18502;43.574;1.276;2023-03-14T18:48:45;10.00;99.90
31979;DHT22;18502;43.574;1.276;2023-03-14T18:51:12;10.00;99.90
31979;DHT22;18502;43.574;1.276;2023-03-14T18:53:42;10.00;99.90
31979;DHT22;18502;43.574;1.276;2023-03-14T18:56:08;10.00;99.90
31979;DHT22;18502;43.574;1.276;2023-03-14T18:58:37;10.00;99.90
31979;DHT22;18502;43.574;1.276;2023-03-14T19:01:03;10.00;99.90
31979;DHT22;18502;43.574;1.276;2023-03-14T19:03:30;10.00;99.90
31979;DHT22;18502;43.574;1.276;2023-03-14T19:05:57;10.10;99.90
31979;DHT22;18502;43.574;1.276;2023-03-14T19:08:24;10.10;99.90
31979;DHT22;18502;43.574;1.276;2023-03-14T19:10:51;10.10;99.90
31979;DHT22;18502;43.574;1.276;2023-03-14T19:13:19;10.10;99.90
31979;DHT22;18502;43.574;1.276;2023-03-14T19:15:45;10.10;99.90
31979;DHT22;18502;43.574;1.276;2023-03-14T19:18:11;10.10;99.90
31979;DHT22;18502;43.574;1.276;2023-03-14T19:20:38;10.10;99.90
31979;DHT22;18502;43.574;1.276;2023-03-14T19:23:04;10.00;99.90
31979;DHT22;18502;43.574;1.276;2023-03-14T19:25:30;9.80;99.90
31979;DHT22;18502;43.574;1.276;2023-03-14T19:27:55;9.70;99.90
31979;DHT22;18502;43.574;1.276;2023-03-14T19:30:21;9.60;99.90
31979;DHT22;18502;43.574;1.276;2023-03-14T19:32:47;9.60;99.90
31979;DHT22;18502;43.574;1.276;2023-03-14T19:35:13;9.70;99.90
31979;DHT22;18502;43.574;1.276;2023-03-14T19:37:39;9.90;99.90
31979;DHT22;18502;43.574;1.276;2023-03-14T19:40:05;9.90;99.90
31979;DHT22;18502;43.574;1.276;2023-03-14T19:42:33;9.90;99.90
31979;DHT22;18502;43.574;1.276;2023-03-14T19:44:59;10.00;99.90
31979;DHT22;18502;43.574;1.276;2023-03-14T19:47:24;10.00;99.90
31979;DHT22;18502;43.574;1.276;2023-03-14T19:49:50;10.00;99.90
31979;DHT22;18502;43.574;1.276;2023-03-14T19:52:16;10.00;99.90
31979;DHT22;18502;43.574;1.276;2023-03-14T19:54:43;10.10;99.90
31979;DHT22;18502;43.574;1.276;2023-03-14T19:57:08;10.10;99.90
31979;DHT22;18502;43.574;1.276;2023-03-14T19:59:34;10.10;99.90
31979;DHT22;18502;43.574;1.276;2023-03-14T20:02:00;9.80;99.90
31979;DHT22;18502;43.574;1.276;2023-03-14T20:04:26;9.60;99.90
31979;DHT22;18502;43.574;1.276;2023-03-14T20:06:52;9.60;99.90
31979;DHT22;18502;43.574;1.276;2023-03-14T20:09:21;9.40;99.90
31979;DHT22;18502;43.574;1.276;2023-03-14T20:11:47;9.30;99.90
31979;DHT22;18502;43.574;1.276;2023-03-14T20:14:13;9.40;99.90
31979;DHT22;18502;43.574;1.276;2023-03-14T20:16:41;9.30;99.90
31979;DHT22;18502;43.574;1.276;2023-03-14T20:19:10;9.30;99.90
31979;DHT22;18502;43.574;1.276;2023-03-14T20:21:37;9.30;99.90
31979;DHT22;18502;43.574;1.276;2023-03-14T20:24:03;9.30;99.90
31979;DHT22;18502;43.574;1.276;2023-03-14T20:26:30;9.40;99.90
31979;DHT22;18502;43.574;1.276;2023-03-14T20:28:59;9.40;99.90
31979;DHT22;18502;43.574;1.276;2023-03-14T20:31:25;9.40;99.90
31979;DHT22;18502;43.574;1.276;2023-03-14T20:33:50;9.30;99.90
31979;DHT22;18502;43.574;1.276;2023-03-14T20:36:16;9.30;99.90
31979;DHT22;18502;43.574;1.276;2023-03-14T20:38:42;9.40;99.90
31979;DHT22;18502;43.574;1.276;2023-03-14T20:41:08;9.30;99.90
31979;DHT22;18502;43.574;1.276;2023-03-14T20:43:35;9.30;99.90
31979;DHT22;18502;43.574;1.276;2023-03-14T20:46:01;9.20;99.90
31979;DHT22;18502;43.574;1.276;2023-03-14T20:48:28;9.30;99.90
31979;DHT22;18502;43.574;1.276;2023-03-14T20:50:54;9.20;99.90
31979;DHT22;18502;43.574;1.276;2023-03-14T20:53:21;9.30;99.90
31979;DHT22;18502;43.574;1.276;2023-03-14T20:55:47;9.30;99.90
31979;DHT22;18502;43.574;1.276;2023-03-14T20:58:13;9.30;99.90
31979;DHT22;18502;43.574;1.276;2023-03-14T21:00:43;9.30;99.90
31979;DHT22;18502;43.574;1.276;2023-03-14T21:03:09;9.30;99.90
31979;DHT22;18502;43.574;1.276;2023-03-14T21:05:35;9.30;99.90
31979;DHT22;18502;43.574;1.276;2023-03-14T21:08:01;9.40;99.90
31979;DHT22;18502;43.574;1.276;2023-03-14T21:10:27;9.40;99.90
31979;DHT22;18502;43.574;1.276;2023-03-14T21:12:52;9.40;99.90
31979;DHT22;18502;43.574;1.276;2023-03-14T21:15:18;9.40;99.90
31979;DHT22;18502;43.574;1.276;2023-03-14T21:17:44;9.40;99.90
31979;DHT22;18502;43.574;1.276;2023-03-14T21:20:11;9.40;99.90
31979;DHT22;18502;43.574;1.276;2023-03-14T21:22:37;9.40;99.90
31979;DHT22;18502;43.574;1.276;2023-03-14T21:25:04;9.50;99.90
31979;DHT22;18502;43.574;1.276;2023-03-14T21:27:30;9.50;99.90
31979;DHT22;18502;43.574;1.276;2023-03-14T21:29:56;9.60;99.90
31979;DHT22;18502;43.574;1.276;2023-03-14T21:32:23;9.60;99.90
31979;DHT22;18502;43.574;1.276;2023-03-14T21:34:49;9.70;99.90
31979;DHT22;18502;43.574;1.276;2023-03-14T21:37:16;9.40;99.90
31979;DHT22;18502;43.574;1.276;2023-03-14T21:39:41;9.40;99.90
31979;DHT22;18502;43.574;1.276;2023-03-14T21:42:07;9.40;99.90
31979;DHT22;18502;43.574;1.276;2023-03-14T21:44:34;9.40;99.90
31979;DHT22;18502;43.574;1.276;2023-03-14T21:47:05;9.40;99.90
31979;DHT22;18502;43.574;1.276;2023-03-14T21:49:31;9.50;99.90
31979;DHT22;18502;43.574;1.276;2023-03-14T21:52:07;9.40;99.90
31979;DHT22;18502;43.574;1.276;2023-03-14T21:54:33;9.50;99.90
31979;DHT22;18502;43.574;1.276;2023-03-14T21:57:00;9.50;99.90
31979;DHT22;18502;43.574;1.276;2023-03-14T21:59:27;9.50;99.90
31979;DHT22;18502;43.574;1.276;2023-03-14T22:01:52;9.50;99.90
31979;DHT22;18502;43.574;1.276;2023-03-14T22:04:23;9.50;99.90
31979;DHT22;18502;43.574;1.276;2023-03-14T22:06:50;9.50;99.90
31979;DHT22;18502;43.574;1.276;2023-03-14T22:09:16;9.50;99.90
31979;DHT22;18502;43.574;1.276;2023-03-14T22:11:42;9.50;99.90
31979;DHT22;18502;43.574;1.276;2023-03-14T22:14:08;9.50;99.90
31979;DHT22;18502;43.574;1.276;2023-03-14T22:16:34;9.50;99.90
31979;DHT22;18502;43.574;1.276;2023-03-14T22:18:59;9.50;99.90
31979;DHT22;18502;43.574;1.276;2023-03-14T22:21:25;9.50;99.90
31979;DHT22;18502;43.574;1.276;2023-03-14T22:23:51;9.50;99.90
31979;DHT22;18502;43.574;1.276;2023-03-14T22:26:17;9.50;99.90
31979;DHT22;18502;43.574;1.276;2023-03-14T22:28:42;9.50;99.90
31979;DHT22;18502;43.574;1.276;2023-03-14T22:31:08;9.40;99.90
31979;DHT22;18502;43.574;1.276;2023-03-14T22:33:35;9.40;99.90
31979;DHT22;18502;43.574;1.276;2023-03-14T22:36:00;9.50;99.90
31979;DHT22;18502;43.574;1.276;2023-03-14T22:38:26;9.40;99.90
31979;DHT22;18502;43.574;1.276;2023-03-14T22:40:52;9.40;99.90
31979;DHT22;18502;43.574;1.276;2023-03-14T22:43:17;9.40;99.90
31979;DHT22;18502;43.574;1.276;2023-03-14T22:45:43;9.40;99.90
31979;DHT22;18502;43.574;1.276;2023-03-14T22:48:09;9.40;99.90
31979;DHT22;18502;43.574;1.276;2023-03-14T22:50:37;9.50;99.90
31979;DHT22;18502;43.574;1.276;2023-03-14T22:53:04;9.30;99.90
31979;DHT22;18502;43.574;1.276;2023-03-14T22:55:29;9.20;99.90
31979;DHT22;18502;43.574;1.276;2023-03-14T22:57:55;9.00;99.90
31979;DHT22;18502;43.574;1.276;2023-03-14T23:00:23;9.00;99.90
31979;DHT22;18502;43.574;1.276;2023-03-14T23:02:49;9.00;99.90
31979;DHT22;18502;43.574;1.276;2023-03-14T23:05:15;8.90;99.90
31979;DHT22;18502;43.574;1.276;2023-03-14T23:07:41;9.00;99.90
31979;DHT22;18502;43.574;1.276;2023-03-14T23:10:07;8.90;99.90
31979;DHT22;18502;43.574;1.276;2023-03-14T23:12:33;8.80;99.90
31979;DHT22;18502;43.574;1.276;2023-03-14T23:14:58;8.90;99.90
31979;DHT22;18502;43.574;1.276;2023-03-14T23:17:24;8.80;99.90
31979;DHT22;18502;43.574;1.276;2023-03-14T23:19:51;8.80;99.90
31979;DHT22;18502;43.574;1.276;2023-03-14T23:22:18;8.80;99.90
31979;DHT22;18502;43.574;1.276;2023-03-14T23:24:43;8.80;99.90
31979;DHT22;18502;43.574;1.276;2023-03-14T23:27:14;8.70;99.90
31979;DHT22;18502;43.574;1.276;2023-03-14T23:29:40;8.70;99.90
31979;DHT22;18502;43.574;1.276;2023-03-14T23:32:06;8.50;99.90
31979;DHT22;18502;43.574;1.276;2023-03-14T23:34:32;8.50;99.90
31979;DHT22;18502;43.574;1.276;2023-03-14T23:36:57;8.60;99.90
31979;DHT22;18502;43.574;1.276;2023-03-14T23:39:23;8.60;99.90
31979;DHT22;18502;43.574;1.276;2023-03-14T23:41:49;8.60;99.90
31979;DHT22;18502;43.574;1.276;2023-03-14T23:44:14;8.60;99.90
31979;DHT22;18502;43.574;1.276;2023-03-14T23:46:40;8.60;99.90
31979;DHT22;18502;43.574;1.276;2023-03-14T23:49:06;8.60;99.90
31979;DHT22;18502;43.574;1.276;2023-03-14T23:51:31;8.60;99.90
31979;DHT22;18502;43.574;1.276;2023-03-14T23:53:57;8.50;99.90
31979;DHT22;18502;43.574;1.276;2023-03-14T23:56:23;8.40;99.90